.
WxDataArchive / Data Records for 2006-03-31
2006-03-30 March 2006 2006-04-01

Data Records for Friday, 31 March 2006

Time	Temp	Chill	HIndex	Humid	Dewpt	 Wind 	HiWind	WindDir	Rain 	Barom 
-----	----	-----	------	-----	-----	------	------	-------	-----	----- 
00:00	57.5	57.5	57.5	51	39.5	2	6	112	0.00	29.930 
00:05	57.5	57.5	57.5	51	39.5	2	5	112	0.00	29.930 
00:10	57.5	57.5	57.5	51	39.5	2	6	90	0.00	29.930 
00:15	57.5	57.5	57.5	51	39.5	2	6	112	0.00	29.922 
00:20	57.3	57.3	57.3	51	39.3	2	4	112	0.00	29.922 
00:25	57.3	57.3	57.3	50	38.8	3	5	90	0.00	29.922 
00:30	57.5	57.5	57.5	50	39.0	2	5	112	0.00	29.915 
00:35	57.5	57.5	57.5	50	39.0	2	6	112	0.00	29.915 
00:40	57.5	57.5	57.5	50	39.0	2	5	112	0.00	29.915 
00:45	57.5	57.5	57.5	50	39.0	2	6	112	0.00	29.911 
00:50	57.6	57.6	57.6	50	39.1	3	6	112	0.00	29.911 
00:55	57.5	57.5	57.5	50	39.0	2	6	135	0.00	29.911 
01:00	57.5	57.5	57.5	50	39.0	3	6	112	0.00	29.901 
01:05	57.6	57.6	57.6	50	39.1	3	6	90	0.00	29.901 
01:10	57.6	57.6	57.6	50	39.1	2	4	112	0.00	29.901 
01:15	57.6	57.6	57.6	50	39.1	3	7	112	0.00	29.896 
01:20	57.5	57.5	57.5	50	39.0	2	5	112	0.00	29.896 
01:25	57.3	57.3	57.3	50	38.8	3	7	90	0.00	29.896 
01:30	57.3	57.3	57.3	50	38.8	2	6	112	0.00	29.894 
01:35	57.3	57.3	57.3	50	38.8	2	4	112	0.00	29.894 
01:40	57.2	57.2	57.2	51	39.2	2	5	112	0.00	29.894 
01:45	57.2	57.2	57.2	51	39.2	2	6	90	0.00	29.885 
01:50	57.2	57.2	57.2	50	38.7	2	6	90	0.00	29.885 
01:55	57.3	57.3	57.3	50	38.8	3	6	90	0.00	29.885 
02:00	57.5	57.5	57.5	50	39.0	3	12	112	0.00	29.885 
02:05	58.0	58.0	58.0	48	38.4	3	12	112	0.00	29.885 
02:10	58.3	58.3	58.3	48	38.7	3	6	112	0.00	29.885 
02:15	58.1	58.1	58.1	48	38.5	2	4	112	0.00	29.882 
02:20	58.1	58.1	58.1	48	38.5	3	7	112	0.00	29.882 
02:25	58.3	58.3	58.3	48	38.7	3	6	90	0.00	29.882 
02:30	58.1	58.1	58.1	48	38.5	2	5	90	0.00	29.879 
02:35	58.3	58.3	58.3	48	38.7	2	5	112	0.00	29.879 
02:40	58.3	58.3	58.3	47	38.2	3	8	90	0.00	29.879 
02:45	58.4	58.4	58.4	47	38.2	3	7	90	0.00	29.870 
02:50	58.4	58.4	58.4	48	38.8	3	6	90	0.00	29.870 
02:55	58.4	58.4	58.4	47	38.2	3	10	90	0.00	29.870 
03:00	58.4	58.4	58.4	47	38.2	2	6	90	0.00	29.864 
03:05	58.4	58.4	58.4	47	38.2	3	7	90	0.00	29.864 
03:10	58.4	58.4	58.4	48	38.8	3	6	112	0.00	29.864 
03:15	58.4	58.4	58.4	48	38.8	3	6	90	0.00	29.849 
03:20	58.4	58.4	58.4	48	38.8	3	7	112	0.00	29.849 
03:25	58.3	58.3	58.3	48	38.7	2	5	112	0.00	29.849 
03:30	58.3	58.3	58.3	49	39.2	2	6	112	0.00	29.841 
03:35	58.1	58.1	58.1	49	39.0	3	7	112	0.00	29.841 
03:40	58.1	58.1	58.1	50	39.6	2	5	90	0.00	29.841 
03:45	58.0	58.0	58.0	50	39.5	2	5	112	0.00	29.832 
03:50	57.6	57.6	57.6	51	39.6	2	4	90	0.00	29.832 
03:55	57.3	57.3	57.3	51	39.3	2	5	112	0.00	29.832 
04:00	57.3	57.3	57.3	51	39.3	2	5	90	0.00	29.821 
04:05	57.5	57.5	57.5	51	39.5	3	7	90	0.00	29.821 
04:10	57.6	57.6	57.6	51	39.6	3	7	112	0.00	29.821 
04:15	58.0	58.0	58.0	51	40.0	4	7	90	0.00	29.803 
04:20	58.0	58.0	58.0	51	40.0	3	5	112	0.00	29.803 
04:25	57.8	57.8	57.8	51	39.8	3	7	112	0.00	29.803 
04:30	57.8	57.8	57.8	52	40.3	3	7	90	0.00	29.796 
04:35	57.8	57.8	57.8	52	40.3	3	7	90	0.00	29.796 
04:40	58.0	58.0	58.0	52	40.5	3	6	112	0.00	29.796 
04:45	58.0	58.0	58.0	52	40.5	2	6	112	0.00	29.798 
04:50	58.1	58.1	58.1	53	41.1	2	5	90	0.00	29.798 
04:55	58.4	58.4	58.4	52	40.8	4	10	90	0.00	29.798 
05:00	58.7	58.7	58.7	53	41.6	3	5	90	0.00	29.795 
05:05	58.9	58.9	58.9	53	41.8	3	8	112	0.00	29.795 
05:10	58.9	58.9	58.9	53	41.8	4	9	90	0.00	29.795 
05:15	59.0	59.0	59.0	53	41.9	4	8	90	0.00	29.792 
05:20	59.3	59.3	59.3	53	42.2	4	15	90	0.00	29.792 
05:25	59.8	59.8	59.8	54	43.1	4	8	90	0.00	29.792 
05:30	59.9	59.9	59.9	54	43.2	4	10	90	0.00	29.792 
05:35	60.2	60.2	60.2	54	43.5	4	6	90	0.00	29.792 
05:40	60.2	60.2	60.2	54	43.5	4	7	90	0.00	29.792 
05:45	60.2	60.2	60.2	54	43.5	4	9	112	0.00	29.800 
05:50	60.4	60.4	60.4	55	44.2	3	9	90	0.00	29.800 
05:55	60.5	60.5	60.5	55	44.2	4	8	90	0.00	29.800 
06:00	60.5	60.5	60.5	55	44.2	3	10	90	0.00	29.800 
06:05	60.5	60.5	60.5	56	44.7	2	10	90	0.00	29.800 
06:10	60.5	60.5	60.5	56	44.7	3	11	90	0.00	29.800 
06:15	60.4	60.4	60.4	57	45.1	2	5	68	0.00	29.805 
06:20	60.4	60.4	60.4	57	45.1	2	7	248	0.00	29.805 
06:25	60.4	60.4	60.4	57	45.1	2	6	270	0.00	29.805 
06:30	60.2	60.2	60.2	61	46.7	2	6	338	0.00	29.818 
06:35	58.9	58.9	58.9	71	49.5	3	9	45	0.04	29.818 
06:40	58.0	58.0	58.0	73	49.4	4	11	270	0.00	29.818 
06:45	57.5	57.5	57.5	74	49.3	2	7	248	0.00	29.818 
06:50	57.5	57.5	57.5	73	48.9	2	6	248	0.00	29.818 
06:55	57.8	57.8	57.8	73	49.2	3	7	248	0.00	29.818 
07:00	58.1	58.1	58.1	73	49.5	2	6	248	0.00	29.812 
07:05	58.1	58.1	58.1	73	49.5	1	3	292	0.00	29.812 
07:10	58.1	58.1	58.1	73	49.5	2	7	112	0.00	29.812 
07:15	59.0	59.0	59.0	73	50.4	4	11	248	0.01	29.810 
07:20	59.8	59.8	59.8	71	50.4	5	12	248	0.00	29.810 
07:25	59.9	59.9	59.9	71	50.5	4	10	248	0.00	29.810 
07:30	59.8	59.8	59.8	72	50.8	4	12	248	0.00	29.808 
07:35	59.3	59.3	59.3	74	51.0	4	10	248	0.00	29.808 
07:40	58.7	58.7	58.7	77	51.5	5	14	248	0.01	29.808 
07:45	58.3	58.3	58.3	78	51.5	4	10	248	0.00	29.813 
07:50	57.8	57.8	57.8	79	51.3	3	9	248	0.01	29.813 
07:55	57.5	57.5	57.5	81	51.7	3	7	225	0.00	29.813 
08:00	57.5	57.5	57.5	81	51.7	5	11	248	0.00	29.809 
08:05	57.5	57.5	57.5	82	52.0	4	11	248	0.00	29.809 
08:10	57.3	57.3	57.3	82	51.9	4	10	248	0.00	29.809 
08:15	57.2	57.2	57.2	83	52.1	4	11	248	0.01	29.814 
08:20	57.2	57.2	57.2	85	52.7	5	11	248	0.01	29.814 
08:25	57.2	57.2	57.2	86	53.0	4	10	248	0.00	29.814 
08:30	57.2	57.2	57.2	87	53.4	5	13	248	0.01	29.810 
08:35	57.0	57.0	57.0	87	53.2	5	10	248	0.00	29.810 
08:40	57.0	57.0	57.0	88	53.5	3	7	248	0.00	29.810 
08:45	57.0	57.0	57.0	87	53.2	4	10	270	0.00	29.802 
08:50	57.0	57.0	57.0	87	53.2	3	11	248	0.00	29.802 
08:55	57.0	57.0	57.0	87	53.2	4	9	248	0.01	29.802 
09:00	57.0	57.0	57.0	86	52.9	4	10	248	0.00	29.795 
09:05	57.2	57.2	57.2	86	53.0	3	11	248	0.00	29.795 
09:10	57.2	57.2	57.2	86	53.0	3	9	248	0.00	29.795 
09:15	57.3	57.3	57.3	85	52.8	3	8	248	0.00	29.793 
09:20	57.5	57.5	57.5	85	53.0	2	7	270	0.00	29.793 
09:25	57.6	57.6	57.6	85	53.1	3	10	248	0.00	29.793 
09:30	57.8	57.8	57.8	84	53.0	2	10	270	0.00	29.793 
09:35	58.0	58.0	58.0	84	53.2	2	7	248	0.00	29.793 
09:40	58.3	58.3	58.3	84	53.5	3	10	248	0.00	29.793 
09:45	58.7	58.7	58.7	84	53.9	4	11	248	0.00	29.788 
09:50	59.0	59.0	59.0	84	54.2	3	10	248	0.00	29.788 
09:55	59.5	59.5	59.5	83	54.3	4	12	248	0.00	29.788 
10:00	59.9	59.9	59.9	82	54.4	3	6	248	0.00	29.786 
10:05	60.2	60.2	60.2	81	54.3	4	10	270	0.00	29.786 
10:10	60.4	60.4	60.4	81	54.5	3	7	248	0.00	29.786 
10:15	60.7	60.7	60.7	82	55.2	3	11	248	0.00	29.792 
10:20	60.9	60.9	60.9	81	55.0	3	11	248	0.00	29.792 
10:25	61.0	61.0	61.0	80	54.8	4	11	248	0.00	29.792 
10:30	61.0	61.0	61.0	80	54.8	5	12	248	0.00	29.790 
10:35	61.0	61.0	61.0	80	54.8	4	10	270	0.00	29.790 
10:40	61.0	61.0	61.0	80	54.8	3	9	248	0.00	29.790 
10:45	61.0	61.0	61.0	80	54.8	3	10	248	0.00	29.786 
10:50	61.0	61.0	61.0	80	54.8	3	7	248	0.00	29.786 
10:55	61.2	61.2	61.2	79	54.6	3	14	270	0.00	29.786 
11:00	61.5	61.5	61.5	82	55.9	4	13	248	0.00	29.787 
11:05	61.6	61.6	61.6	79	55.0	4	14	248	0.00	29.787 
11:10	61.8	61.8	61.8	78	54.9	3	9	248	0.00	29.787 
11:15	61.8	61.8	61.8	78	54.9	4	11	248	0.00	29.774 
11:20	61.6	61.6	61.6	77	54.3	5	14	225	0.00	29.774 
11:25	61.5	61.5	61.5	77	54.2	5	13	248	0.00	29.774 
11:30	61.5	61.5	61.5	76	53.9	3	9	248	0.00	29.773 
11:35	61.6	61.6	61.6	75	53.6	5	13	248	0.00	29.773 
11:40	61.8	61.8	61.8	76	54.1	4	11	248	0.00	29.773 
11:45	62.0	62.0	62.0	75	54.0	5	10	248	0.00	29.776 
11:50	62.1	62.1	62.1	74	53.7	4	14	248	0.00	29.776 
11:55	62.0	62.0	62.0	74	53.6	5	14	248	0.00	29.776 
12:00	62.0	62.0	62.0	75	54.0	6	13	248	0.00	29.775 
12:05	62.0	62.0	62.0	75	54.0	4	13	248	0.00	29.775 
12:10	62.0	62.0	62.0	77	54.7	4	16	248	0.00	29.775 
12:15	61.8	61.8	61.8	77	54.5	4	15	248	0.00	29.770 
12:20	61.8	61.8	61.8	77	54.5	4	12	270	0.00	29.770 
12:25	62.1	62.1	62.1	78	55.2	4	10	248	0.00	29.770 
12:30	62.3	62.3	62.3	78	55.3	4	12	270	0.00	29.760 
12:35	62.4	62.4	62.4	78	55.4	4	12	248	0.00	29.760 
12:40	62.4	62.4	62.4	78	55.4	5	13	248	0.00	29.760 
12:45	62.3	62.3	62.3	78	55.3	4	10	270	0.00	29.754 
12:50	62.3	62.3	62.3	78	55.3	6	13	248	0.00	29.754 
12:55	62.4	62.4	62.4	78	55.4	4	14	270	0.00	29.754 
13:00	62.6	62.6	62.6	78	55.6	5	11	248	0.00	29.750 
13:05	62.6	62.6	62.6	78	55.6	5	13	248	0.00	29.750 
13:10	62.7	62.7	62.7	79	56.1	5	12	248	0.00	29.750 
13:15	63.1	63.1	63.1	77	55.8	4	11	248	0.00	29.743 
13:20	63.2	63.2	63.2	78	56.2	4	12	248	0.00	29.743 
13:25	63.2	63.2	63.2	77	55.9	6	18	248	0.00	29.743 
13:30	63.2	63.2	63.2	77	55.9	5	13	248	0.00	29.742 
13:35	63.2	63.2	63.2	76	55.5	7	17	248	0.00	29.742 
13:40	63.2	63.2	63.2	77	55.9	7	17	248	0.00	29.742 
13:45	63.2	63.2	63.2	76	55.5	6	16	248	0.00	29.740 
13:50	63.2	63.2	63.2	76	55.5	4	12	248	0.00	29.740 
13:55	63.2	63.2	63.2	75	55.1	5	14	270	0.00	29.740 
14:00	63.5	63.5	63.5	75	55.4	4	9	248	0.00	29.729 
14:05	64.0	64.0	64.0	75	55.9	7	15	248	0.00	29.729 
14:10	64.7	64.7	64.7	73	55.8	7	17	248	0.00	29.729 
14:15	65.5	65.5	65.5	71	55.8	4	10	248	0.00	29.712 
14:20	66.1	66.1	66.1	70	56.0	5	12	248	0.00	29.712 
14:25	66.3	66.3	66.3	69	55.8	6	19	270	0.00	29.712 
14:30	66.6	66.6	66.6	69	56.1	5	16	248	0.00	29.704 
14:35	67.6	67.6	67.6	64	55.0	4	12	248	0.00	29.704 
14:40	67.8	67.8	67.8	66	56.0	4	12	248	0.00	29.704 
14:45	67.8	67.8	67.8	63	54.7	5	14	248	0.00	29.691 
14:50	67.9	67.9	67.9	62	54.4	5	16	248	0.00	29.691 
14:55	68.3	68.3	68.3	64	55.6	5	12	270	0.00	29.691 
15:00	68.6	68.6	68.6	62	55.0	5	11	248	0.00	29.685 
15:05	68.9	68.9	68.9	60	54.4	4	12	225	0.00	29.685 
15:10	69.1	69.1	69.1	57	53.2	6	16	248	0.00	29.685 
15:15	69.1	69.1	69.1	57	53.2	6	14	248	0.00	29.680 
15:20	69.1	69.1	69.1	58	53.7	6	13	248	0.00	29.680 
15:25	69.4	69.4	69.4	58	54.0	6	15	270	0.00	29.680 
15:30	69.6	69.6	69.6	53	51.7	8	16	248	0.00	29.680 
15:35	69.8	69.8	69.8	53	51.9	9	17	248	0.00	29.680 
15:40	69.8	69.8	69.8	53	51.9	9	16	248	0.00	29.680 
15:45	69.9	69.9	69.9	52	51.5	7	18	270	0.00	29.683 
15:50	69.8	69.8	69.8	53	51.9	6	22	248	0.00	29.683 
15:55	68.8	68.8	68.8	54	51.5	8	23	270	0.00	29.683 
16:00	68.6	68.6	68.6	56	52.3	7	18	248	0.00	29.679 
16:05	68.4	68.4	68.4	57	52.6	6	16	248	0.00	29.679 
16:10	68.8	68.8	68.8	57	52.9	7	14	248	0.00	29.679 
16:15	69.1	69.1	69.1	57	53.2	6	14	248	0.00	29.672 
16:20	69.6	69.6	69.6	55	52.7	7	18	248	0.00	29.672 
16:25	69.8	69.8	69.8	55	52.9	6	16	248	0.00	29.672 
16:30	69.6	69.6	69.6	55	52.7	8	17	270	0.00	29.671 
16:35	69.6	69.6	69.6	54	52.2	8	18	248	0.00	29.671 
16:40	69.1	69.1	69.1	56	52.7	7	15	248	0.00	29.671 
16:45	68.9	68.9	68.9	59	54.0	4	13	225	0.00	29.657 
16:50	68.4	68.4	68.4	60	54.0	5	12	270	0.00	29.657 
16:55	68.3	68.3	68.3	62	54.8	5	15	248	0.00	29.657 
17:00	68.4	68.4	68.4	61	54.4	4	13	225	0.00	29.655 
17:05	68.4	68.4	68.4	62	54.9	5	12	248	0.00	29.655 
17:10	68.6	68.6	68.6	62	55.0	4	12	270	0.00	29.655 
17:15	68.6	68.6	68.6	62	55.0	3	13	248	0.00	29.641 
17:20	68.4	68.4	68.4	62	54.9	4	10	248	0.00	29.641 
17:25	68.4	68.4	68.4	62	54.9	4	9	270	0.00	29.641 
17:30	68.4	68.4	68.4	60	54.0	5	15	270	0.00	29.633 
17:35	68.9	68.9	68.9	59	54.0	5	14	270	0.00	29.633 
17:40	68.9	68.9	68.9	58	53.5	5	14	270	0.00	29.633 
17:45	68.9	68.9	68.9	59	54.0	4	12	270	0.00	29.627 
17:50	68.9	68.9	68.9	58	53.5	5	12	248	0.00	29.627 
17:55	68.8	68.8	68.8	58	53.4	3	10	248	0.00	29.627 
18:00	68.9	68.9	68.9	58	53.5	3	11	68	0.00	29.618 
18:05	68.6	68.6	68.6	59	53.7	3	9	248	0.00	29.618 
18:10	68.4	68.4	68.4	60	54.0	5	12	270	0.00	29.618 
18:15	68.1	68.1	68.1	62	54.6	6	17	270	0.00	29.620 
18:20	67.3	67.3	67.3	61	53.4	6	18	270	0.00	29.620 
18:25	66.8	66.8	66.8	67	55.5	4	9	248	0.00	29.620 
18:30	66.3	66.3	66.3	73	57.4	4	9	248	0.03	29.627 
18:35	64.3	64.3	64.3	75	56.2	5	15	270	0.03	29.627 
18:40	62.7	62.7	62.7	83	57.5	5	16	270	0.02	29.627 
18:45	62.0	62.0	62.0	81	56.1	5	12	270	0.00	29.631 
18:50	61.6	61.6	61.6	82	56.0	3	5	248	0.00	29.631 
18:55	60.7	60.7	60.7	78	53.8	6	15	248	0.00	29.631 
19:00	59.0	59.0	59.0	81	53.2	5	14	248	0.02	29.648 
19:05	58.1	58.1	58.1	81	52.3	5	12	248	0.00	29.648 
19:10	57.8	57.8	57.8	80	51.7	5	12	248	0.00	29.648 
19:15	58.0	58.0	58.0	81	52.2	4	9	248	0.00	29.651 
19:20	58.3	58.3	58.3	80	52.2	5	9	248	0.00	29.651 
19:25	58.7	58.7	58.7	80	52.5	4	10	248	0.00	29.651 
19:30	59.0	59.0	59.0	79	52.5	3	6	248	0.00	29.651 
19:35	59.5	59.5	59.5	78	52.6	3	7	248	0.00	29.651 
19:40	59.6	59.6	59.6	77	52.4	4	10	248	0.00	29.651 
19:45	59.8	59.8	59.8	77	52.6	3	7	248	0.00	29.660 
19:50	59.9	59.9	59.9	77	52.7	4	9	248	0.00	29.660 
19:55	59.9	59.9	59.9	72	50.8	3	7	248	0.00	29.660 
20:00	59.8	59.8	59.8	76	52.2	3	13	248	0.00	29.679 
20:05	60.4	60.4	60.4	67	49.4	7	15	270	0.00	29.679 
20:10	60.5	60.5	60.5	60	46.5	5	17	270	0.00	29.679 
20:15	60.4	60.4	60.4	57	45.1	8	16	270	0.00	29.694 
20:20	60.2	60.2	60.2	58	45.4	6	15	270	0.00	29.694 
20:25	59.9	59.9	59.9	58	45.1	6	15	270	0.00	29.694 
20:30	59.6	59.6	59.6	58	44.8	4	12	270	0.00	29.712 
20:35	59.5	59.5	59.5	59	45.2	5	13	270	0.00	29.712 
20:40	59.2	59.2	59.2	59	44.9	4	9	270	0.00	29.712 
20:45	59.2	59.2	59.2	60	45.3	5	16	248	0.00	29.719 
20:50	58.9	58.9	58.9	60	45.0	4	9	270	0.00	29.719 
20:55	58.7	58.7	58.7	61	45.3	4	9	248	0.00	29.719 
21:00	58.6	58.6	58.6	60	44.8	6	14	248	0.00	29.730 
21:05	58.4	58.4	58.4	61	45.0	6	13	248	0.00	29.730 
21:10	58.3	58.3	58.3	59	44.0	6	17	270	0.00	29.730 
21:15	58.0	58.0	58.0	60	44.2	5	10	270	0.00	29.736 
21:20	57.8	57.8	57.8	61	44.4	5	12	270	0.00	29.736 
21:25	57.6	57.6	57.6	60	43.8	6	17	270	0.00	29.736 
21:30	57.5	57.5	57.5	61	44.2	5	13	270	0.00	29.743 
21:35	57.2	57.2	57.2	61	43.9	4	12	270	0.00	29.743 
21:40	57.0	57.0	57.0	61	43.7	5	13	270	0.00	29.743 
21:45	56.9	56.9	56.9	62	44.0	5	12	270	0.00	29.747 
21:50	56.7	56.7	56.7	62	43.8	5	12	270	0.00	29.747 
21:55	56.5	56.5	56.5	63	44.1	4	7	270	0.00	29.747 
22:00	56.3	56.3	56.3	63	43.9	3	5	270	0.00	29.746 
22:05	56.2	56.2	56.2	64	44.2	4	12	248	0.00	29.746 
22:10	55.9	55.9	55.9	64	43.9	2	6	270	0.00	29.746 
22:15	55.7	55.7	55.7	65	44.1	3	7	248	0.00	29.747 
22:20	55.7	55.7	55.7	64	43.7	4	12	270	0.00	29.747 
22:25	55.6	55.6	55.6	63	43.2	4	8	270	0.00	29.747 
22:30	55.3	55.3	55.3	63	42.9	3	8	248	0.00	29.757 
22:35	55.3	55.3	55.3	63	42.9	6	13	270	0.00	29.757 
22:40	55.0	55.0	55.0	63	42.6	5	12	248	0.00	29.757 
22:45	54.8	54.8	54.8	63	42.4	7	18	270	0.00	29.762 
22:50	54.5	54.5	54.5	64	42.6	4	11	270	0.00	29.762 
22:55	54.4	54.4	54.4	64	42.5	6	17	270	0.00	29.762 
23:00	54.1	54.1	54.1	65	42.6	6	16	270	0.00	29.761 
23:05	53.9	53.9	53.9	65	42.4	6	14	270	0.00	29.761 
23:10	53.8	53.8	53.8	65	42.3	4	11	270	0.00	29.761 
23:15	53.5	53.5	53.5	65	42.0	5	15	270	0.00	29.763 
23:20	53.3	53.3	53.3	66	42.2	5	12	270	0.00	29.763 
23:25	53.2	53.2	53.2	65	41.7	7	17	270	0.00	29.763 
23:30	53.1	53.1	53.1	66	42.0	6	16	270	0.00	29.764 
23:35	52.9	52.9	52.9	66	41.9	7	14	270	0.00	29.764 
23:40	52.8	52.8	52.8	67	42.1	6	16	270	0.00	29.764 
23:45	52.6	52.6	52.6	67	42.0	4	10	270	0.00	29.767 
23:50	52.3	52.3	52.3	68	42.1	5	11	270	0.00	29.767 
23:55	52.2	52.2	52.2	68	42.0	4	9	270	0.00	29.767 

CoCoRaHS
IN-AL-39
A2 Web Hosting
Creative Commons License
GoDaddy
Look for:

loaded 2017-10-16 18:13:31 • last modified 2010-11-18 10:43:29
Privacy PolicyDisclaimer
• wx.awcolley.com is powered by PmWiki v.2002016 •
• all content (unless otherwise noted) © 2017 A W Colley